Time;durP1;ratioP1;P1;durP2;ratioP2;P2;SDS_P1;SDS_P2;PMS_P1;PMS_P2;Temp;Humidity;BMP_temperature;BMP_pressure;BME280_temperature;BME280_humidity;BME280_pressure;Samples;Min_cycle;Max_cycle;Signal;HPM_P1;HPM_P2
2023/10/14 00:02:08;;;;;;;26.37;12.83;;;;;;;15.71;100.00;100435.41;1483020;87;21463;-82
2023/10/14 00:04:32;;;;;;;20.10;12.37;;;;;;;15.68;100.00;100432.59;1481124;87;21507;-81
2023/10/14 00:07:05;;;;;;;26.50;12.90;;;;;;;15.68;100.00;100430.41;1481067;88;21478;-81
2023/10/14 00:09:27;;;;;;;21.43;10.53;;;;;;;15.67;100.00;100433.55;1486286;87;21464;-82
2023/10/14 00:11:55;;;;;;;24.80;10.80;;;;;;;15.69;100.00;100428.08;1478622;88;21621;-80
2023/10/14 00:14:23;;;;;;;21.63;11.73;;;;;;;15.68;100.00;100427.26;1481912;87;21441;-81
2023/10/14 00:16:51;;;;;;;22.13;10.90;;;;;;;15.68;100.00;100427.73;1485840;87;21685;-80
2023/10/14 00:19:22;;;;;;;24.57;11.03;;;;;;;15.66;100.00;100426.57;1479253;88;22388;-80
2023/10/14 00:21:50;;;;;;;20.20;11.50;;;;;;;15.62;100.00;100427.92;1486476;87;21648;-80
2023/10/14 00:24:28;;;;;;;26.57;12.23;;;;;;;15.59;100.00;100418.95;1485537;87;21449;-80
2023/10/14 00:26:55;;;;;;;22.90;10.97;;;;;;;15.57;100.00;100416.47;1490385;87;21559;-80
2023/10/14 00:29:22;;;;;;;17.77;9.63;;;;;;;15.56;100.00;100419.31;1478945;88;21448;-79
2023/10/14 00:31:51;;;;;;;23.93;12.93;;;;;;;15.57;100.00;100412.98;1486924;87;21486;-80
2023/10/14 00:34:22;;;;;;;20.73;11.67;;;;;;;15.57;100.00;100418.32;1474414;87;21464;-79
2023/10/14 00:36:49;;;;;;;23.60;10.47;;;;;;;15.55;100.00;100412.33;1472986;87;21464;-79
2023/10/14 00:39:16;;;;;;;23.70;10.33;;;;;;;15.54;100.00;100410.68;1477116;87;21610;-80
2023/10/14 00:41:49;;;;;;;19.27;10.27;;;;;;;15.51;100.00;100404.38;1462975;88;22329;-80
2023/10/14 00:44:13;;;;;;;19.90;10.70;;;;;;;15.48;100.00;100412.73;1475324;88;22381;-80
2023/10/14 00:46:48;;;;;;;27.40;11.43;;;;;;;15.45;100.00;100406.40;1465595;88;21701;-80
2023/10/14 00:49:12;;;;;;;22.93;9.77;;;;;;;15.44;100.00;100404.24;1468686;88;21478;-82
2023/10/14 00:51:45;;;;;;;21.63;10.37;;;;;;;15.44;100.00;100400.75;1478281;88;21591;-81
2023/10/14 00:54:18;;;;;;;21.57;12.10;;;;;;;15.44;100.00;100391.42;1472302;88;22322;-82
2023/10/14 00:56:40;;;;;;;24.43;11.67;;;;;;;15.41;100.00;100385.94;1469585;88;22626;-83
2023/10/14 00:59:09;;;;;;;23.43;13.00;;;;;;;15.39;100.00;100392.45;1472591;88;22506;-83
2023/10/14 01:01:55;;;;;;;22.13;11.13;;;;;;;15.34;100.00;100391.17;1470783;88;21656;-82
2023/10/14 01:04:19;;;;;;;20.77;11.00;;;;;;;15.32;100.00;100391.84;1475666;87;21453;-80
2023/10/14 01:12:16;;;;;;;18.20;11.30;;;;;;;15.23;100.00;100373.44;1475051;87;22375;-80
2023/10/14 01:14:34;;;;;;;25.93;11.47;;;;;;;15.26;100.00;100377.90;1477621;87;21578;-80
2023/10/14 01:17:01;;;;;;;22.40;11.07;;;;;;;15.24;100.00;100378.58;1472370;87;22351;-80
2023/10/14 01:19:28;;;;;;;25.13;12.00;;;;;;;15.21;100.00;100370.94;1469353;88;22343;-80
2023/10/14 01:21:57;;;;;;;21.60;11.10;;;;;;;15.18;100.00;100377.14;1473760;87;21442;-79
2023/10/14 01:24:22;;;;;;;19.50;12.10;;;;;;;15.15;100.00;100372.16;1474370;87;21493;-80
2023/10/14 01:26:57;;;;;;;29.93;11.00;;;;;;;15.14;100.00;100367.86;1470399;87;21442;-79
2023/10/14 01:29:30;;;;;;;18.43;10.07;;;;;;;15.10;100.00;100360.22;1472809;88;21722;-80
2023/10/14 01:32:23;;;;;;;;;;;;;;;15.10;100.00;100359.36;1465390;88;21479;-80
2023/10/14 01:34:42;;;;;;;31.23;11.97;;;;;;;15.08;100.00;100353.41;1471213;87;20273;-79
2023/10/14 01:37:19;;;;;;;39.27;12.73;;;;;;;15.08;100.00;100361.40;1478631;87;21390;-80
2023/10/14 01:39:48;;;;;;;21.97;11.43;;;;;;;15.06;100.00;100359.41;1467241;88;21701;-79
2023/10/14 01:42:10;;;;;;;26.77;12.07;;;;;;;15.03;100.00;100355.77;1470391;87;22359;-79
2023/10/14 01:44:36;;;;;;;25.40;12.63;;;;;;;15.00;100.00;100345.47;1476530;87;21619;-80
2023/10/14 01:47:02;;;;;;;23.47;10.73;;;;;;;14.96;100.00;100346.81;1477126;88;21538;-79
2023/10/14 01:49:28;;;;;;;27.30;13.27;;;;;;;14.93;100.00;100347.17;1469170;88;22458;-80
2023/10/14 01:51:57;;;;;;;21.60;12.00;;;;;;;14.92;100.00;100342.86;1472883;88;21480;-81
2023/10/14 01:54:23;;;;;;;26.50;11.80;;;;;;;14.92;100.00;100344.19;1474791;87;21434;-80
2023/10/14 01:56:51;;;;;;;26.97;12.13;;;;;;;14.93;100.00;100340.50;1466642;88;21689;-80
2023/10/14 01:59:22;;;;;;;23.00;12.83;;;;;;;14.94;100.00;100335.52;1473602;87;21582;-80
2023/10/14 02:01:47;;;;;;;19.07;11.17;;;;;;;14.94;100.00;100332.86;1474174;87;21537;-80
2023/10/14 02:04:15;;;;;;;29.37;12.23;;;;;;;14.90;100.00;100332.36;1472805;87;21908;-81
2023/10/14 02:07:00;;;;;;;21.27;12.87;;;;;;;14.88;100.00;100328.56;1475980;88;22528;-80
2023/10/14 02:09:12;;;;;;;20.87;12.33;;;;;;;14.85;100.00;100327.58;1467114;88;21767;-80
2023/10/14 02:11:38;;;;;;;25.77;13.57;;;;;;;14.82;100.00;100323.95;1474979;87;22343;-80
2023/10/14 02:14:07;;;;;;;23.17;11.67;;;;;;;14.80;100.00;100324.62;1473261;88;21626;-80
2023/10/14 02:16:46;;;;;;;18.60;12.20;;;;;;;14.77;100.00;100319.64;1477790;87;21479;-80
2023/10/14 02:22:02;;;;;;;25.47;13.60;;;;;;;14.74;100.00;100317.34;1447048;88;21515;-80
2023/10/14 02:24:29;;;;;;;22.00;12.00;;;;;;;14.74;100.00;100327.17;1472072;88;21449;-80
2023/10/14 02:26:57;;;;;;;25.13;12.40;;;;;;;14.75;100.00;100324.31;1467650;88;21456;-81
2023/10/14 02:29:24;;;;;;;19.27;12.10;;;;;;;14.76;100.00;100322.00;1477300;88;21479;-80
2023/10/14 02:31:51;;;;;;;19.43;11.93;;;;;;;14.74;100.00;100320.00;1478178;87;21596;-81
2023/10/14 02:34:18;;;;;;;19.50;12.87;;;;;;;14.73;100.00;100313.50;1482948;87;22432;-81
2023/10/14 02:36:52;;;;;;;23.63;13.67;;;;;;;14.68;100.00;100313.23;1481342;87;21611;-79
2023/10/14 02:39:25;;;;;;;24.67;13.63;;;;;;;14.64;100.00;100316.25;1481722;87;21456;-79
2023/10/14 02:41:59;;;;;;;23.77;14.18;;;;;;;14.61;100.00;100314.42;1485630;87;22387;-81
2023/10/14 02:44:43;;;;;;;22.47;12.90;;;;;;;14.58;100.00;100312.11;1484020;87;21656;-80
2023/10/14 02:47:08;;;;;;;24.00;12.63;;;;;;;14.57;100.00;100313.12;1479667;88;21530;-81
2023/10/14 02:49:39;;;;;;;27.40;13.10;;;;;;;14.58;100.00;100318.77;1484929;87;21442;-81
2023/10/14 02:52:10;;;;;;;19.37;14.63;;;;;;;14.56;100.00;100311.48;1478279;87;21662;-80
2023/10/14 02:54:44;;;;;;;30.43;14.55;;;;;;;14.51;100.00;100311.14;1479683;87;21419;-80
2023/10/14 02:57:25;;;;;;;30.33;13.67;;;;;;;14.47;100.00;100309.81;1489600;88;21478;-79
2023/10/14 02:59:44;;;;;;;22.50;12.80;;;;;;;14.41;100.00;100309.54;1476101;87;21486;-79
2023/10/14 03:07:33;;;;;;;17.70;12.00;;;;;;;14.36;100.00;100310.56;1479869;88;21722;-80
2023/10/14 03:12:50;;;;;;;22.48;12.35;;;;;;;14.36;100.00;100294.59;1479225;87;21537;-80
2023/10/14 03:15:20;;;;;;;27.77;14.60;;;;;;;14.33;100.00;100296.27;1480041;88;21507;-80
2023/10/14 03:17:55;;;;;;;21.70;12.43;;;;;;;14.29;100.00;100296.27;1470644;88;21559;-80
2023/10/14 03:22:58;;;;;;;23.43;12.67;;;;;;;14.21;100.00;100294.98;1476432;87;21456;-80
2023/10/14 03:25:27;;;;;;;18.30;10.20;;;;;;;14.21;100.00;100297.64;1481744;88;21741;-80
2023/10/14 03:28:07;;;;;;;24.67;10.03;;;;;;;14.21;100.00;100294.98;1492777;87;21546;-80
2023/10/14 03:30:28;;;;;;;22.57;10.10;;;;;;;14.22;100.00;100292.66;1469212;88;21433;-80
2023/10/14 03:32:55;;;;;;;28.10;10.97;;;;;;;14.23;100.00;100291.65;1485708;87;22321;-80
2023/10/14 03:35:22;;;;;;;33.00;12.67;;;;;;;14.24;100.00;100290.64;1478616;87;22389;-80
2023/10/14 03:37:59;;;;;;;20.63;10.37;;;;;;;14.25;100.00;100280.34;1485354;88;21449;-80
2023/10/14 03:43:08;;;;;;;21.00;11.73;;;;;;;14.21;100.00;100278.53;1488426;87;21640;-82
2023/10/14 03:45:29;;;;;;;20.33;10.47;;;;;;;14.20;100.00;100281.36;1484551;87;21552;-82
2023/10/14 03:48:00;;;;;;;24.77;11.10;;;;;;;14.19;100.00;100270.39;1479686;88;21433;-81
2023/10/14 03:50:23;;;;;;;18.17;10.93;;;;;;;14.20;100.00;100266.72;1461354;88;22578;-81
2023/10/14 03:52:53;;;;;;;26.43;9.47;;;;;;;14.19;100.00;100268.55;1481134;87;22113;-81
2023/10/14 03:55:24;;;;;;;17.57;10.17;;;;;;;14.21;100.00;100263.04;1487653;87;21426;-80
2023/10/14 03:57:51;;;;;;;22.83;10.97;;;;;;;14.21;100.00;100253.25;1481486;88;21433;-80
2023/10/14 04:00:36;;;;;;;23.67;11.27;;;;;;;14.21;100.00;100254.58;1486388;87;22409;-81
2023/10/14 04:02:57;;;;;;;17.83;11.40;;;;;;;14.20;100.00;100257.41;1478530;88;21573;-80
2023/10/14 04:05:22;;;;;;;22.80;10.60;;;;;;;14.16;100.00;100249.45;1486370;87;21677;-81
2023/10/14 04:07:49;;;;;;;23.60;11.87;;;;;;;14.14;100.00;100244.80;1474297;88;21485;-81
2023/10/14 04:10:22;;;;;;;24.57;10.63;;;;;;;14.12;100.00;100251.61;1476409;87;21455;-80
2023/10/14 04:12:53;;;;;;;26.10;10.37;;;;;;;14.12;100.00;100250.79;1483471;87;21493;-81
2023/10/14 04:17:38;;;;;;;21.97;13.27;;;;;;;14.15;100.00;100243.78;1468753;88;21529;-81
2023/10/14 04:22:40;;;;;;;28.53;11.47;;;;;;;14.15;100.00;100245.11;1492409;87;21427;-79
2023/10/14 04:28:17;;;;;;;16.63;8.43;;;;;;;14.12;100.00;100238.81;1475661;88;22468;-82
2023/10/14 04:30:24;;;;;;;19.60;9.37;;;;;;;14.12;100.00;100242.80;1482408;88;21478;-81
2023/10/14 04:33:05;;;;;;;14.03;9.37;;;;;;;14.12;100.00;100234.82;1488295;88;21590;-81
2023/10/14 04:35:23;;;;;;;18.70;10.80;;;;;;;14.11;100.00;100234.00;1431271;89;22060;-81
2023/10/14 04:37:51;;;;;;;23.80;10.73;;;;;;;14.12;100.00;100232.16;1454726;89;21540;-80
2023/10/14 04:46:05;;;;;;;16.60;9.97;;;;;;;14.07;100.00;100231.84;1453118;89;21636;-81
2023/10/14 04:51:15;;;;;;;24.87;10.43;;;;;;;14.03;100.00;100226.56;1460748;89;21563;-81
2023/10/14 04:53:42;;;;;;;17.00;9.37;;;;;;;14.00;100.00;100231.22;1428649;91;21520;-82
2023/10/14 04:56:10;;;;;;;23.37;10.53;;;;;;;13.99;100.00;100238.89;1407309;92;21760;-80
2023/10/14 04:58:42;;;;;;;20.57;10.00;;;;;;;13.97;100.00;100238.22;1453981;89;21606;-81
2023/10/14 05:01:17;;;;;;;16.43;9.33;;;;;;;13.98;100.00;100237.23;1430686;91;21549;-81
2023/10/14 05:03:38;;;;;;;15.93;8.90;;;;;;;14.02;100.00;100235.56;1405062;92;21516;-82
2023/10/14 05:08:44;;;;;;;15.53;10.43;;;;;;;14.03;100.00;100238.54;1455628;89;21615;-79
2023/10/14 05:11:04;;;;;;;22.40;10.63;;;;;;;14.00;100.00;100237.88;1461260;89;21672;-78
2023/10/14 05:13:34;;;;;;;19.97;10.83;;;;;;;13.98;100.00;100233.72;1436152;89;21482;-80
2023/10/14 05:16:20;;;;;;;27.30;13.00;;;;;;;13.96;100.00;100235.25;1462024;89;21579;-80
2023/10/14 05:19:01;;;;;;;17.77;9.73;;;;;;;13.96;100.00;100237.91;1460142;89;22766;-81
2023/10/14 05:24:10;;;;;;;27.70;11.83;;;;;;;13.99;100.00;100240.22;1429322;91;21523;-80
2023/10/14 05:26:46;;;;;;;22.20;11.40;;;;;;;14.00;100.00;100243.20;1459779;89;21443;-79
2023/10/14 05:29:22;;;;;;;26.10;12.20;;;;;;;14.04;100.00;100238.38;1456318;89;21622;-79
2023/10/14 05:31:50;;;;;;;23.73;11.03;;;;;;;14.06;100.00;100235.53;1454338;89;21503;-80
2023/10/14 05:34:22;;;;;;;21.77;10.07;;;;;;;14.06;100.00;100232.86;1458582;87;21502;-79
2023/10/14 05:36:52;;;;;;;20.50;11.20;;;;;;;14.08;100.00;100233.53;1480495;87;21635;-79
2023/10/14 05:39:17;;;;;;;18.67;10.10;;;;;;;14.10;100.00;100239.00;1487072;87;22424;-79
2023/10/14 05:41:48;;;;;;;22.50;11.63;;;;;;;14.14;100.00;100240.30;1491312;87;21471;-79
2023/10/14 05:44:14;;;;;;;18.33;10.73;;;;;;;14.21;100.00;100241.75;1481987;87;21514;-79
2023/10/14 05:46:41;;;;;;;21.77;12.73;;;;;;;14.27;100.00;100242.88;1485767;87;21614;-78
2023/10/14 05:49:08;;;;;;;22.67;11.03;;;;;;;14.34;100.00;100243.34;1480445;88;21488;-79
2023/10/14 05:51:35;;;;;;;20.87;11.87;;;;;;;14.40;100.00;100243.96;1479175;88;21692;-79
2023/10/14 05:54:02;;;;;;;25.63;13.60;;;;;;;14.47;100.00;100243.25;1469355;88;21603;-80
2023/10/14 05:56:29;;;;;;;25.67;11.70;;;;;;;14.53;100.00;100251.89;1484307;88;22329;-79
2023/10/14 05:58:55;;;;;;;28.37;12.70;;;;;;;14.61;100.00;100246.50;1474914;87;21448;-79
2023/10/14 06:01:21;;;;;;;28.17;11.57;;;;;;;14.66;100.00;100246.80;1484904;87;21931;-81
2023/10/14 06:03:47;;;;;;;23.03;11.40;;;;;;;14.75;100.00;100248.90;1476038;88;21455;-80
2023/10/14 06:06:21;;;;;;;32.30;12.63;;;;;;;14.85;100.00;100241.50;1486634;87;22520;-81
2023/10/14 06:08:46;;;;;;;27.40;12.77;;;;;;;14.95;100.00;100242.57;1484940;88;22358;-80
2023/10/14 06:11:13;;;;;;;30.83;12.73;;;;;;;15.06;100.00;100244.80;1467058;88;21478;-80
2023/10/14 06:13:40;;;;;;;23.87;12.90;;;;;;;15.14;100.00;100243.91;1495489;88;21470;-81
2023/10/14 06:16:11;;;;;;;26.13;12.60;;;;;;;15.22;100.00;100242.46;1478475;88;21405;-81
2023/10/14 06:18:39;;;;;;;22.37;11.33;;;;;;;15.29;100.00;100236.23;1478567;87;21426;-80
2023/10/14 06:21:08;;;;;;;22.53;10.77;;;;;;;15.39;100.00;100235.12;1473757;87;21455;-82
2023/10/14 06:23:35;;;;;;;18.50;10.03;;;;;;;15.51;100.00;100229.67;1469815;88;21471;-82
2023/10/14 06:26:01;;;;;;;23.77;12.10;;;;;;;15.62;100.00;100223.84;1485293;87;21603;-81
2023/10/14 06:28:30;;;;;;;26.43;11.53;;;;;;;15.73;100.00;100219.41;1470269;88;21508;-82
2023/10/14 06:31:00;;;;;;;19.20;10.97;;;;;;;15.83;100.00;100221.80;1492731;88;21589;-80
2023/10/14 06:33:26;;;;;;;23.43;10.30;;;;;;;15.92;100.00;100206.51;1478140;87;21522;-79
2023/10/14 06:35:53;;;;;;;22.27;11.33;;;;;;;16.01;100.00;100212.05;1481597;87;21619;-80
2023/10/14 06:38:22;;;;;;;18.70;10.70;;;;;;;16.11;100.00;100211.25;1475528;87;21596;-79
2023/10/14 06:41:01;;;;;;;22.33;10.90;;;;;;;16.21;100.00;100212.27;1489157;88;21559;-80
2023/10/14 06:43:26;;;;;;;18.77;9.83;;;;;;;16.32;100.00;100216.28;1486315;87;21500;-80
2023/10/14 06:45:51;;;;;;;21.70;11.83;;;;;;;16.44;100.00;100220.91;1483002;87;22443;-81
2023/10/14 06:48:18;;;;;;;25.90;12.17;;;;;;;16.55;100.00;100216.92;1474414;88;22263;-81
2023/10/14 06:50:47;;;;;;;26.77;11.47;;;;;;;16.66;100.00;100220.41;1490271;87;22358;-79
2023/10/14 06:53:15;;;;;;;29.37;12.60;;;;;;;16.76;100.00;100226.78;1482203;88;22336;-82
2023/10/14 06:55:42;;;;;;;22.70;11.33;;;;;;;16.87;100.00;100224.10;1477140;88;21625;-81
2023/10/14 06:58:12;;;;;;;33.03;11.10;;;;;;;16.98;100.00;100224.91;1488396;87;21531;-83
2023/10/14 07:00:40;;;;;;;28.53;11.77;;;;;;;17.07;100.00;100220.24;1475326;87;21456;-80
2023/10/14 07:03:15;;;;;;;21.23;10.97;;;;;;;17.18;100.00;100222.89;1475887;87;21493;-81
2023/10/14 07:05:46;;;;;;;23.20;9.93;;;;;;;17.33;100.00;100223.60;1484067;87;21441;-84
2023/10/14 07:08:15;;;;;;;18.92;9.43;;;;;;;17.49;100.00;100219.28;1444162;88;21568;-90
2023/10/14 07:10:43;;;;;;;17.17;9.90;;;;;;;17.70;100.00;100220.20;1393207;89;21374;-89
2023/10/14 07:13:10;;;;;;;19.73;8.63;;;;;;;17.85;100.00;100218.22;1399564;89;21523;-88
2023/10/14 07:15:38;;;;;;;19.48;9.45;;;;;;;18.01;100.00;100215.20;1405523;88;21339;-89
2023/10/14 07:18:05;;;;;;;20.77;9.15;;;;;;;18.18;100.00;100208.97;1404456;87;21502;-91
2023/10/14 07:20:32;;;;;;;28.02;9.03;;;;;;;18.31;100.00;100212.17;1501850;87;21425;-88
2023/10/14 07:23:00;;;;;;;20.92;8.33;;;;;;;18.41;100.00;100212.61;1479795;88;21581;-90
2023/10/14 07:25:33;;;;;;;19.75;9.38;;;;;;;18.52;100.00;100219.72;1479265;88;21440;-89
2023/10/14 07:35:11;;;;;;;22.35;7.83;;;;;;;18.88;100.00;100222.05;1487133;88;21515;-89
2023/10/14 07:37:36;;;;;;;20.82;8.18;;;;;;;19.12;100.00;100228.62;1402338;88;21397;-88
2023/10/14 07:40:11;;;;;;;16.80;7.83;;;;;;;19.27;100.00;100227.86;1406299;87;21221;-89
2023/10/14 07:42:31;;;;;;;22.50;8.45;;;;;;;19.39;100.00;100228.89;1402619;87;21330;-88
2023/10/14 07:44:58;;;;;;;22.35;7.83;;;;;;;19.59;100.00;100229.33;1406631;88;21465;-87
2023/10/14 07:47:29;;;;;;;17.50;7.50;;;;;;;19.77;100.00;100224.15;1466125;88;22440;-88
2023/10/14 07:49:54;;;;;;;16.70;7.50;;;;;;;19.96;100.00;100221.58;1482797;87;21574;-92
2023/10/14 07:52:21;;;;;;;23.25;7.62;;;;;;;20.08;100.00;100219.86;1468887;88;21405;-87
2023/10/14 07:54:51;;;;;;;16.67;6.72;;;;;;;20.16;100.00;100224.98;1480828;88;21561;-87
2023/10/14 07:57:17;;;;;;;19.65;7.03;;;;;;;20.20;100.00;100218.16;1481958;87;21449;-89
2023/10/14 07:59:43;;;;;;;18.15;7.87;;;;;;;20.26;100.00;100215.95;1470501;88;21427;-87
2023/10/14 08:02:13;;;;;;;18.02;7.12;;;;;;;20.32;98.83;100222.32;1484126;88;21489;-89
2023/10/14 08:04:38;;;;;;;24.75;8.70;;;;;;;20.38;98.52;100216.59;1465166;87;21427;-91
2023/10/14 08:07:06;;;;;;;19.75;7.78;;;;;;;20.43;96.56;100217.59;1470035;88;21596;-89
2023/10/14 08:09:39;;;;;;;18.05;8.70;;;;;;;20.56;96.87;100214.53;1483764;88;22277;-90
2023/10/14 08:12:01;;;;;;;29.52;9.53;;;;;;;20.63;93.75;100211.26;1484017;87;21419;-84
2023/10/14 08:14:30;;;;;;;16.40;8.13;;;;;;;20.71;92.48;100184.95;1480129;88;21504;-86
2023/10/14 08:16:57;;;;;;;19.05;8.15;;;;;;;20.75;89.23;100190.70;1471373;88;22490;-89
2023/10/14 08:19:26;;;;;;;18.10;8.38;;;;;;;20.89;89.06;100200.83;1484089;87;21530;-88
2023/10/14 08:21:52;;;;;;;32.55;7.83;;;;;;;20.99;86.29;100197.09;1481886;87;22359;-85
2023/10/14 08:24:20;;;;;;;22.22;7.87;;;;;;;21.02;83.35;100184.55;1472552;88;21427;-86
2023/10/14 08:26:47;;;;;;;17.60;7.47;;;;;;;21.05;82.98;100185.44;1481237;87;21508;-86
2023/10/14 08:29:13;;;;;;;15.68;7.35;;;;;;;21.11;78.85;100183.20;1480680;88;21448;-89
2023/10/14 08:31:42;;;;;;;18.17;8.23;;;;;;;21.16;80.13;100176.64;1485038;88;21524;-88
2023/10/14 08:34:09;;;;;;;16.70;6.85;;;;;;;21.24;80.62;100176.88;1486716;87;21478;-87
2023/10/14 08:36:36;;;;;;;17.00;7.80;;;;;;;21.37;78.94;100176.74;1484433;87;22576;-84
2023/10/14 08:39:03;;;;;;;16.48;6.58;;;;;;;21.50;78.32;100179.00;1483671;87;21518;-88
2023/10/14 08:41:36;;;;;;;21.48;8.98;;;;;;;21.62;77.33;100169.93;1482299;88;21427;-85
2023/10/14 08:44:08;;;;;;;25.02;7.85;;;;;;;21.78;77.73;100173.88;1484116;87;21353;-87
2023/10/14 08:46:35;;;;;;;12.67;7.37;;;;;;;21.92;76.10;100168.30;1468035;88;21656;-86
2023/10/14 08:49:03;;;;;;;19.60;7.58;;;;;;;21.98;74.47;100160.14;1482971;87;22322;-87
2023/10/14 08:51:29;;;;;;;23.92;7.47;;;;;;;22.07;74.30;100153.91;1482955;87;21947;-85
2023/10/14 08:53:58;;;;;;;26.33;7.67;;;;;;;22.13;71.32;100158.91;1467344;88;21396;-86
2023/10/14 08:56:25;;;;;;;19.02;7.90;;;;;;;22.24;72.54;100150.03;1481873;88;22285;-88
2023/10/14 08:58:51;;;;;;;19.48;7.65;;;;;;;22.41;72.06;100146.98;1478581;88;21589;-89
2023/10/14 09:01:22;;;;;;;16.25;7.95;;;;;;;22.57;69.69;100151.39;1482148;88;21323;-88
2023/10/14 09:03:49;;;;;;;18.73;6.95;;;;;;;22.72;69.02;100148.51;1483337;87;21571;-87
2023/10/14 09:13:12;;;;;;;20.32;7.53;;;;;;;23.89;61.06;100140.47;1469175;88;21618;-92
2023/10/14 09:15:44;;;;;;;17.82;8.23;;;;;;;24.58;57.52;100133.02;1469114;88;21397;-87
2023/10/14 09:18:27;;;;;;;25.23;8.20;;;;;;;25.06;56.56;100136.95;1482445;88;21492;-89
2023/10/14 09:20:56;;;;;;;24.55;7.58;;;;;;;25.59;53.71;100136.81;1478770;87;21394;-89
2023/10/14 09:23:39;;;;;;;28.05;9.40;;;;;;;26.04;50.68;100132.98;1467348;88;21397;-89
2023/10/14 09:26:04;;;;;;;15.75;7.17;;;;;;;26.30;49.05;100140.80;1479288;87;21627;-89
2023/10/14 09:28:40;;;;;;;17.82;6.87;;;;;;;26.71;49.65;100132.17;1470845;88;21485;-87
2023/10/14 09:31:10;;;;;;;23.00;7.55;;;;;;;27.00;47.14;100132.07;1484038;87;21560;-90
2023/10/14 09:33:43;;;;;;;28.10;7.28;;;;;;;27.30;47.80;100136.03;1467780;88;21449;-87
2023/10/14 09:36:13;;;;;;;15.03;7.45;;;;;;;27.50;46.15;100127.69;1485687;88;22007;-87
2023/10/14 09:38:41;;;;;;;23.55;7.53;;;;;;;27.53;45.26;100116.28;1482912;88;21374;-90
2023/10/14 09:41:10;;;;;;;24.27;7.87;;;;;;;27.61;44.65;100109.78;1482345;87;21353;-88
2023/10/14 09:43:46;;;;;;;21.15;8.23;;;;;;;27.71;44.12;100107.64;1454726;88;21537;-87
2023/10/14 09:46:17;;;;;;;17.62;7.37;;;;;;;27.82;43.42;100108.48;1479808;88;22314;-85
2023/10/14 09:48:44;;;;;;;15.90;7.40;;;;;;;27.87;42.77;100108.50;1481520;88;21485;-89
2023/10/14 09:51:13;;;;;;;21.60;8.40;;;;;;;27.73;40.91;100099.20;1483248;87;21390;-89
2023/10/14 09:53:40;;;;;;;17.45;6.85;;;;;;;27.72;42.11;100101.11;1485405;87;21530;-91
2023/10/14 09:56:10;;;;;;;25.95;7.60;;;;;;;27.84;42.32;100088.65;1485840;88;21434;-89
2023/10/14 09:58:41;;;;;;;19.50;7.90;;;;;;;27.87;41.66;100087.55;1483325;88;21404;-88
2023/10/14 10:01:14;;;;;;;18.07;7.45;;;;;;;27.97;41.69;100085.95;1484623;87;21360;-89
2023/10/14 10:03:51;;;;;;;14.38;8.08;;;;;;;27.76;41.74;100079.08;1482452;88;21353;-90
2023/10/14 10:07:15;;;;;;;14.90;6.92;;;;;;;27.57;41.14;100079.34;1482939;87;21397;-90
2023/10/14 10:10:10;;;;;;;20.77;6.97;;;;;;;27.56;42.21;100074.42;1481591;87;21536;-89
2023/10/14 10:12:37;;;;;;;22.55;8.68;;;;;;;27.28;42.19;100062.15;1482625;87;21420;-91
2023/10/14 10:15:06;;;;;;;24.57;8.18;;;;;;;27.25;42.55;100055.89;1485188;87;21367;-91
2023/10/14 10:17:40;;;;;;;17.40;6.60;;;;;;;27.21;41.87;100048.80;1469469;88;21601;-92
2023/10/14 10:20:12;;;;;;;22.48;6.67;;;;;;;26.94;42.33;100042.16;1484174;88;22065;-88
2023/10/14 10:22:51;;;;;;;24.07;7.85;;;;;;;26.86;43.11;100048.09;1483174;87;21338;-88
2023/10/14 10:25:17;;;;;;;23.90;7.97;;;;;;;26.67;42.96;100041.48;1481685;87;21982;-88
2023/10/14 10:27:49;;;;;;;25.88;7.72;;;;;;;26.48;43.12;100034.30;1483952;87;22291;-88
2023/10/14 10:30:17;;;;;;;18.75;7.95;;;;;;;26.37;43.62;100030.70;1554450;88;21257;-89
2023/10/14 10:32:52;;;;;;;;;;;;;;;26.21;44.12;100024.89;1393797;89;21409;-89
2023/10/14 10:35:13;;;;;;;22.07;8.20;;;;;;;26.05;44.26;100012.59;1564531;87;20774;-88
2023/10/14 10:37:56;;;;;;;23.50;7.37;;;;;;;25.91;44.45;100021.42;1392473;89;22213;-88
2023/10/14 10:40:28;;;;;;;25.90;8.30;;;;;;;25.82;44.74;100008.34;1503710;87;21382;-83
2023/10/14 10:43:08;;;;;;;21.70;7.97;;;;;;;25.89;44.66;100006.76;1483782;87;21315;-81
2023/10/14 10:45:34;;;;;;;21.12;8.43;;;;;;;25.94;44.92;99997.31;1485498;88;21652;-81
2023/10/14 10:48:04;;;;;;;19.60;7.75;;;;;;;26.16;45.18;99992.33;1479253;87;21360;-82
2023/10/14 10:50:41;;;;;;;14.83;8.23;;;;;;;26.41;44.84;99995.72;1402244;87;21516;-82
2023/10/14 10:53:20;;;;;;;23.15;7.62;;;;;;;26.47;44.21;99987.88;1404532;87;21472;-82
2023/10/14 10:55:50;;;;;;;16.42;7.58;;;;;;;26.51;43.83;99981.70;1535366;88;21428;-82
2023/10/14 10:58:17;;;;;;;15.68;7.72;;;;;;;26.58;43.81;99982.00;1484511;88;21522;-83
2023/10/14 11:00:47;;;;;;;19.77;8.15;;;;;;;26.60;43.98;99973.88;1480808;88;21631;-83
2023/10/14 11:03:16;;;;;;;23.75;7.72;;;;;;;26.67;43.95;99964.13;1483498;88;21814;-82
2023/10/14 11:05:47;;;;;;;21.57;7.55;;;;;;;26.56;43.00;99964.64;1566922;87;21360;-80
2023/10/14 11:08:16;;;;;;;27.10;9.00;;;;;;;26.32;43.05;99954.70;1403784;87;21368;-83
2023/10/14 11:10:44;;;;;;;26.80;8.15;;;;;;;26.17;43.19;99928.32;1402664;88;21346;-83
2023/10/14 11:13:19;;;;;;;25.27;7.35;;;;;;;26.07;43.65;99928.28;1404878;88;21406;-81
2023/10/14 11:15:45;;;;;;;17.23;7.87;;;;;;;26.01;43.74;99923.37;1417298;87;21397;-82
2023/10/14 11:18:13;;;;;;;18.17;7.20;;;;;;;26.01;43.87;99930.14;1461080;87;21471;-88
2023/10/14 11:20:44;;;;;;;23.20;8.70;;;;;;;25.99;43.51;99939.61;1482783;88;21382;-79
2023/10/14 11:23:11;;;;;;;17.77;7.58;;;;;;;26.03;43.93;99933.39;1485465;87;21338;-80
2023/10/14 11:25:40;;;;;;;24.95;8.28;;;;;;;26.05;43.77;99927.17;1479067;88;21367;-78
2023/10/14 11:28:10;;;;;;;22.70;7.78;;;;;;;26.08;43.25;99928.00;1484520;87;21559;-80
2023/10/14 11:30:47;;;;;;;21.73;9.20;;;;;;;26.13;43.37;99920.99;1483131;88;21470;-78
2023/10/14 11:33:19;;;;;;;18.57;8.43;;;;;;;26.18;43.37;99916.93;1481218;87;21912;-79
2023/10/14 11:35:52;;;;;;;17.98;8.05;;;;;;;26.29;43.54;99900.98;1486609;88;21375;-80
2023/10/14 11:38:16;;;;;;;22.13;7.08;;;;;;;26.42;43.27;99908.66;1394821;88;21317;-79
2023/10/14 11:40:48;;;;;;;26.05;7.58;;;;;;;26.53;41.69;99910.36;1403923;87;21544;-79
2023/10/14 11:43:17;;;;;;;15.48;6.08;;;;;;;26.73;41.73;99914.23;1394430;87;21317;-79
2023/10/14 11:45:43;;;;;;;19.42;7.58;;;;;;;26.87;41.89;99909.09;1395088;87;21265;-79
2023/10/14 11:48:28;;;;;;;18.27;7.28;;;;;;;26.80;41.66;99906.64;1397423;88;22287;-80
2023/10/14 11:51:01;;;;;;;19.10;7.37;;;;;;;26.76;41.16;99904.20;1557283;87;21464;-80
2023/10/14 11:53:31;;;;;;;19.02;7.33;;;;;;;26.74;41.15;99909.06;1393428;87;21295;-79
2023/10/14 11:56:03;;;;;;;19.12;7.00;;;;;;;26.69;41.45;99904.98;1535660;88;21331;-79
2023/10/14 11:58:33;;;;;;;17.17;7.58;;;;;;;26.69;41.53;99903.62;1551733;87;21280;-79
2023/10/14 12:00:59;;;;;;;26.35;8.45;;;;;;;26.70;41.91;99899.81;1398631;87;21206;-79
2023/10/14 12:03:26;;;;;;;25.50;7.28;;;;;;;26.77;41.20;99897.67;1390420;89;21405;-79
2023/10/14 12:05:57;;;;;;;23.15;8.18;;;;;;;26.85;41.11;99889.56;1396810;87;22123;-80
2023/10/14 12:08:30;;;;;;;25.32;8.83;;;;;;;26.96;41.60;99885.23;1389127;89;21324;-80
2023/10/14 12:10:57;;;;;;;31.30;9.23;;;;;;;27.18;40.20;99886.36;1558092;87;21258;-80
2023/10/14 12:13:24;;;;;;;18.52;8.95;;;;;;;27.49;41.46;99879.58;1397026;88;21302;-80
2023/10/14 12:15:52;;;;;;;15.70;8.60;;;;;;;27.77;40.87;99868.67;1541954;88;22262;-79
2023/10/14 12:18:20;;;;;;;35.75;10.25;;;;;;;28.05;40.02;99871.36;1558079;87;21265;-79